Time;durP1;ratioP1;P1;durP2;ratioP2;P2;SDS_P1;SDS_P2;PMS_P1;PMS_P2;Temp;Humidity;BMP_temperature;BMP_pressure;BME280_temperature;BME280_humidity;BME280_pressure;Samples;Min_cycle;Max_cycle;Signal;HPM_P1;HPM_P2
2023/10/16 00:00:58;;;;;;;4.80;1.10;;;0.30;99.90;;;;;;1875129;76;25325;-87
2023/10/16 00:03:48;;;;;;;3.33;0.83;;;0.30;99.90;;;;;;1876535;76;25269;-87
2023/10/16 00:06:36;;;;;;;0.73;0.70;;;0.30;99.90;;;;;;1872703;75;25718;-87
2023/10/16 00:09:28;;;;;;;1.10;0.60;;;0.40;99.90;;;;;;1876315;76;25694;-87
2023/10/16 00:12:19;;;;;;;1.33;0.70;;;0.50;99.90;;;;;;1891950;75;25315;-87
2023/10/16 00:17:44;;;;;;;1.50;0.70;;;0.90;99.90;;;;;;1913149;72;27030;-85
2023/10/16 00:20:33;;;;;;;3.83;0.83;;;1.20;99.90;;;;;;1890271;75;25179;-87
2023/10/16 00:23:24;;;;;;;1.80;0.80;;;1.30;99.90;;;;;;1886570;75;25252;-87
2023/10/16 00:29:02;;;;;;;2.97;0.77;;;1.40;99.90;;;;;;1933817;72;27627;-85
2023/10/16 00:31:44;;;;;;;3.37;0.90;;;1.50;99.90;;;;;;1906849;75;25342;-87
2023/10/16 00:34:32;;;;;;;1.20;0.80;;;1.50;99.90;;;;;;1906718;75;25815;-87
2023/10/16 00:37:21;;;;;;;3.37;0.80;;;1.50;99.90;;;;;;1907578;75;25187;-87
2023/10/16 00:40:12;;;;;;;2.90;0.80;;;1.50;99.90;;;;;;1900724;73;25327;-87
2023/10/16 00:43:06;;;;;;;0.90;0.77;;;1.60;99.90;;;;;;1901153;75;25275;-86
2023/10/16 00:48:43;;;;;;;2.67;0.90;;;1.60;99.90;;;;;;1931680;72;27445;-85
2023/10/16 00:51:32;;;;;;;1.20;0.67;;;1.60;99.90;;;;;;1892170;75;25215;-87
2023/10/16 00:54:28;;;;;;;3.23;0.60;;;2.10;99.90;;;;;;1888332;75;25220;-87
2023/10/16 00:57:16;;;;;;;0.77;0.70;;;2.60;99.90;;;;;;1898879;74;25700;-87
2023/10/16 01:00:12;;;;;;;0.73;0.70;;;2.60;99.90;;;;;;1899057;75;25907;-87
2023/10/16 01:05:41;;;;;;;2.80;0.87;;;2.80;99.90;;;;;;1966895;72;26990;-87
2023/10/16 01:11:14;;;;;;;2.57;0.83;;;2.80;99.90;;;;;;1941024;72;27088;-85
2023/10/16 01:14:03;;;;;;;3.17;0.80;;;2.60;99.90;;;;;;1899026;75;25168;-87
2023/10/16 01:16:54;;;;;;;1.53;0.90;;;2.50;99.90;;;;;;1847210;76;25215;-87
2023/10/16 01:19:43;;;;;;;1.33;0.70;;;2.50;99.90;;;;;;1798845;78;25214;-87
2023/10/16 01:22:34;;;;;;;1.33;0.83;;;2.50;99.90;;;;;;1838681;77;25747;-87
2023/10/16 01:25:22;;;;;;;1.33;0.67;;;2.50;99.90;;;;;;1866076;76;25239;-87
2023/10/16 01:28:13;;;;;;;1.33;0.90;;;2.60;99.90;;;;;;1847279;77;25232;-86
2023/10/16 01:31:01;;;;;;;1.67;0.80;;;2.70;99.90;;;;;;1872985;76;25766;-86
2023/10/16 01:33:51;;;;;;;2.80;0.80;;;2.70;99.90;;;;;;1849484;76;25285;-86
2023/10/16 01:36:45;;;;;;;5.00;0.83;;;2.60;99.90;;;;;;1914405;73;25290;-86
2023/10/16 01:39:48;;;;;;;0.90;0.70;;;2.60;99.90;;;;;;1897670;73;25344;-86
2023/10/16 01:42:37;;;;;;;0.50;0.50;;;2.60;99.90;;;;;;1897303;73;25835;-87
2023/10/16 01:45:27;;;;;;;3.30;0.70;;;2.60;99.90;;;;;;1882477;74;25345;-87
2023/10/16 01:50:56;;;;;;;2.87;0.60;;;2.50;99.90;;;;;;1921765;72;27068;-86
2023/10/16 01:53:44;;;;;;;1.20;0.80;;;2.50;99.90;;;;;;1893813;73;25718;-85
2023/10/16 01:56:34;;;;;;;2.20;0.70;;;2.50;99.90;;;;;;1900563;75;25295;-85
2023/10/16 01:59:22;;;;;;;1.80;0.87;;;2.60;99.90;;;;;;1887316;75;25250;-87
2023/10/16 02:04:51;;;;;;;2.70;0.73;;;2.50;99.90;;;;;;1934494;72;27053;-85
2023/10/16 02:07:42;;;;;;;1.57;0.90;;;2.50;99.90;;;;;;1910731;74;25341;-85
2023/10/16 02:10:29;;;;;;;1.50;0.70;;;2.50;99.90;;;;;;1854429;76;25311;-85
2023/10/16 02:13:17;;;;;;;0.57;0.57;;;2.50;99.90;;;;;;1896335;74;25226;-87
2023/10/16 02:16:10;;;;;;;1.83;0.83;;;2.40;99.90;;;;;;1909864;73;25217;-85
2023/10/16 02:18:57;;;;;;;2.37;0.90;;;2.30;99.90;;;;;;1896882;74;25300;-86
2023/10/16 02:21:47;;;;;;;2.17;0.77;;;2.20;99.90;;;;;;1899077;75;25270;-86
2023/10/16 02:24:37;;;;;;;2.10;0.83;;;2.00;99.90;;;;;;1897212;74;25336;-86
2023/10/16 02:27:25;;;;;;;1.23;0.90;;;1.80;99.90;;;;;;1900145;74;25244;-86
2023/10/16 02:30:28;;;;;;;3.43;0.80;;;1.60;99.90;;;;;;1908891;74;25155;-86
2023/10/16 02:33:18;;;;;;;1.20;0.97;;;1.50;99.90;;;;;;1891507;74;25703;-86
2023/10/16 02:36:07;;;;;;;0.90;0.83;;;1.20;99.90;;;;;;1899038;74;25287;-86
2023/10/16 02:38:56;;;;;;;1.90;0.80;;;1.00;99.90;;;;;;1904360;74;25308;-86
2023/10/16 02:44:30;;;;;;;1.33;0.80;;;0.50;99.90;;;;;;1931703;72;27103;-87
2023/10/16 02:47:25;;;;;;;2.63;0.83;;;0.40;99.90;;;;;;1860602;75;25820;-87
2023/10/16 02:50:14;;;;;;;2.67;0.80;;;0.40;99.90;;;;;;1838845;76;25403;-87
2023/10/16 02:53:01;;;;;;;0.80;0.80;;;0.30;99.90;;;;;;1900910;74;25219;-87
2023/10/16 02:55:53;;;;;;;0.80;0.80;;;0.10;99.90;;;;;;1871226;75;25228;-86
2023/10/16 02:58:42;;;;;;;0.80;0.67;;;0.00;99.90;;;;;;1808538;78;26464;-86
2023/10/16 03:01:31;;;;;;;2.07;0.73;;;-0.10;99.90;;;;;;1910554;73;25687;-86
2023/10/16 03:04:23;;;;;;;1.40;0.90;;;-0.20;99.90;;;;;;1884275;75;25263;-86
2023/10/16 03:07:09;;;;;;;3.27;0.80;;;-0.20;99.90;;;;;;1883583;75;26023;-86
2023/10/16 03:10:00;;;;;;;1.63;0.87;;;-0.10;99.90;;;;;;1843079;76;25287;-86
2023/10/16 03:12:49;;;;;;;0.77;0.77;;;0.40;99.90;;;;;;1902187;73;25314;-86
2023/10/16 03:15:42;;;;;;;2.27;0.90;;;0.60;99.90;;;;;;1861873;75;25820;-86
2023/10/16 03:18:29;;;;;;;1.67;0.80;;;0.80;99.90;;;;;;1817967;77;25658;-86
2023/10/16 03:21:27;;;;;;;1.13;0.70;;;0.90;99.90;;;;;;1887144;75;25309;-86
2023/10/16 03:24:19;;;;;;;0.60;0.60;;;0.90;99.90;;;;;;1902762;73;25260;-85
2023/10/16 03:27:08;;;;;;;2.63;0.80;;;1.20;99.90;;;;;;1864016;75;25216;-86
2023/10/16 03:29:58;;;;;;;2.33;0.90;;;1.40;99.90;;;;;;1890175;75;25786;-85
2023/10/16 03:35:30;;;;;;;1.03;0.80;;;1.60;99.90;;;;;;1930315;72;27445;-85
2023/10/16 03:38:35;;;;;;;1.13;0.80;;;1.50;99.90;;;;;;1883260;75;25222;-87
2023/10/16 03:41:27;;;;;;;3.67;1.10;;;1.60;99.90;;;;;;1851005;76;25431;-87
2023/10/16 03:44:14;;;;;;;0.90;0.90;;;1.70;99.90;;;;;;1772853;80;25315;-87
2023/10/16 03:47:05;;;;;;;0.70;0.70;;;1.80;99.90;;;;;;1812236;78;25656;-87
2023/10/16 03:49:52;;;;;;;0.87;0.50;;;1.90;99.90;;;;;;1838971;78;25216;-87
2023/10/16 03:52:41;;;;;;;0.43;0.43;;;2.00;99.90;;;;;;1829244;78;25235;-87
2023/10/16 03:55:32;;;;;;;1.83;0.70;;;2.00;99.90;;;;;;1831092;78;25345;-87
2023/10/16 03:58:19;;;;;;;1.80;0.63;;;1.90;99.90;;;;;;1830572;78;25271;-86
2023/10/16 04:01:08;;;;;;;2.43;0.77;;;1.90;99.90;;;;;;1819417;78;25794;-86
2023/10/16 04:03:57;;;;;;;1.43;0.80;;;1.80;99.90;;;;;;1826968;78;25325;-85
2023/10/16 04:06:48;;;;;;;0.60;0.60;;;1.70;99.90;;;;;;1827717;78;25356;-86
2023/10/16 04:09:48;;;;;;;2.03;1.00;;;1.70;99.90;;;;;;1816348;78;25359;-86
2023/10/16 04:12:33;;;;;;;1.30;0.90;;;1.60;99.90;;;;;;1820708;78;25858;-86
2023/10/16 04:15:24;;;;;;;0.80;0.80;;;1.60;99.90;;;;;;1815065;78;25865;-86
2023/10/16 04:18:19;;;;;;;1.40;0.80;;;1.60;99.90;;;;;;1820934;78;25765;-86
2023/10/16 04:24:30;;;;;;;0.80;0.80;;;1.60;99.90;;;;;;1825318;78;25242;-86
2023/10/16 04:30:39;;;;;;;0.73;0.67;;;1.90;99.90;;;;;;1821874;78;25775;-86
2023/10/16 04:33:48;;;;;;;1.50;0.70;;;2.10;99.90;;;;;;1816618;78;25785;-86
2023/10/16 04:38:55;;;;;;;0.63;0.40;;;2.10;99.90;;;;;;1948640;72;26879;-85
2023/10/16 04:44:49;;;;;;;1.17;0.73;;;2.00;99.90;;;;;;1946850;72;27163;-86
2023/10/16 04:47:19;;;;;;;2.80;1.90;;;2.00;99.90;;;;;;1901869;75;25868;-85
2023/10/16 04:50:09;;;;;;;1.57;0.73;;;1.90;99.90;;;;;;1901808;75;25665;-86
2023/10/16 04:53:11;;;;;;;0.83;0.83;;;1.80;99.90;;;;;;1898923;75;25319;-87
2023/10/16 04:56:15;;;;;;;3.60;0.90;;;1.80;99.90;;;;;;1899348;75;25715;-87
2023/10/16 04:59:00;;;;;;;0.97;0.60;;;1.80;99.90;;;;;;1885135;75;25346;-87
2023/10/16 05:02:15;;;;;;;3.23;0.80;;;1.80;99.90;;;;;;1897546;75;25230;-87
2023/10/16 05:05:32;;;;;;;0.60;0.60;;;1.80;99.90;;;;;;1903496;75;25255;-87
2023/10/16 05:07:54;;;;;;;1.83;0.70;;;1.90;99.90;;;;;;1910459;75;25706;-87
2023/10/16 05:11:23;;;;;;;1.10;0.80;;;1.80;99.90;;;;;;1891290;75;25794;-85
2023/10/16 05:13:55;;;;;;;0.60;0.60;;;1.80;99.90;;;;;;1904603;75;25800;-87
2023/10/16 05:16:35;;;;;;;0.73;0.73;;;1.80;99.90;;;;;;1891805;75;25192;-86
2023/10/16 05:19:43;;;;;;;1.23;0.73;;;1.70;99.90;;;;;;1885774;75;25330;-87
2023/10/16 06:14:51;;;;;;;2.53;1.10;;;2.20;99.90;;;;;;1850953;76;25288;-88
2023/10/16 06:17:39;;;;;;;0.97;0.90;;;2.20;99.90;;;;;;1828486;77;25265;-88
2023/10/16 06:20:31;;;;;;;1.97;0.60;;;2.30;99.90;;;;;;1837526;77;25307;-88
2023/10/16 06:23:19;;;;;;;0.93;0.50;;;2.30;99.90;;;;;;1867578;76;25756;-89
2023/10/16 06:26:08;;;;;;;2.87;0.80;;;2.30;99.90;;;;;;1859088;76;25274;-88
2023/10/16 06:28:58;;;;;;;0.60;0.60;;;2.40;99.90;;;;;;1864069;76;25240;-88
2023/10/16 06:31:50;;;;;;;0.70;0.70;;;2.40;99.90;;;;;;1835726;77;25793;-88
2023/10/16 06:34:39;;;;;;;1.20;1.10;;;2.40;99.90;;;;;;1844475;77;25721;-88
2023/10/16 06:37:31;;;;;;;1.23;0.80;;;2.40;99.90;;;;;;1865871;76;25244;-86
2023/10/16 06:40:24;;;;;;;0.80;0.70;;;2.50;99.90;;;;;;1865965;76;25500;-86
2023/10/16 06:43:13;;;;;;;3.07;0.70;;;2.50;99.90;;;;;;1866121;76;25254;-88
2023/10/16 06:48:43;;;;;;;1.00;0.93;;;2.80;99.90;;;;;;1929428;72;27655;-88
2023/10/16 06:51:32;;;;;;;1.40;0.50;;;3.00;99.90;;;;;;1910573;75;25161;-88
2023/10/16 06:54:20;;;;;;;0.70;0.70;;;3.10;99.90;;;;;;1896994;73;25241;-88
2023/10/16 06:59:55;;;;;;;2.20;0.60;;;3.10;99.90;;;;;;1934527;72;26992;-86
2023/10/16 07:02:43;;;;;;;0.60;0.60;;;3.20;99.90;;;;;;1903692;75;25250;-89
2023/10/16 07:05:42;;;;;;;1.00;0.70;;;3.30;99.90;;;;;;1904546;73;25693;-87
2023/10/16 07:08:33;;;;;;;2.27;0.60;;;3.40;99.90;;;;;;1917845;74;25218;-89
2023/10/16 07:11:24;;;;;;;0.70;0.70;;;3.50;99.90;;;;;;1866671;75;25257;-89
2023/10/16 07:14:17;;;;;;;0.40;0.40;;;3.60;99.90;;;;;;1834822;76;25302;-88
2023/10/16 07:17:03;;;;;;;0.60;0.60;;;3.70;99.90;;;;;;1871697;75;25273;-87
2023/10/16 07:19:58;;;;;;;0.50;0.50;;;3.80;99.90;;;;;;1822438;76;25336;-88
2023/10/16 07:22:42;;;;;;;0.40;0.40;;;3.90;99.90;;;;;;1905241;73;25226;-88
2023/10/16 07:25:47;;;;;;;1.07;0.70;;;4.00;99.90;;;;;;1864738;75;25714;-87
2023/10/16 07:28:29;;;;;;;1.93;0.60;;;4.10;99.90;;;;;;1816922;77;25332;-87
2023/10/16 07:31:18;;;;;;;0.40;0.40;;;4.20;99.90;;;;;;1894849;73;25655;-87
2023/10/16 07:34:06;;;;;;;0.57;0.57;;;4.20;99.90;;;;;;1895125;73;25639;-88
2023/10/16 07:36:55;;;;;;;2.33;0.50;;;4.30;99.90;;;;;;1860408;75;25899;-88
2023/10/16 07:39:43;;;;;;;1.40;0.67;;;4.40;99.90;;;;;;1838670;76;25326;-88
2023/10/16 07:45:11;;;;;;;0.90;0.60;;;4.50;99.90;;;;;;1940215;72;27180;-87
2023/10/16 07:48:07;;;;;;;0.60;0.60;;;4.70;99.90;;;;;;1899399;73;25770;-89
2023/10/16 07:50:52;;;;;;;1.40;0.70;;;4.60;99.90;;;;;;1839341;76;25265;-88
2023/10/16 07:53:42;;;;;;;0.40;0.40;;;4.80;99.90;;;;;;1933755;72;25331;-88
2023/10/16 07:56:32;;;;;;;0.83;0.83;;;4.90;99.90;;;;;;1927426;73;25191;-88
2023/10/16 07:59:21;;;;;;;0.60;0.50;;;4.90;99.90;;;;;;1939147;72;25153;-86
2023/10/16 08:02:17;;;;;;;0.50;0.50;;;5.00;99.90;;;;;;1932322;73;25246;-88
2023/10/16 08:05:04;;;;;;;0.50;0.50;;;5.10;99.90;;;;;;1885599;73;25281;-89
2023/10/16 08:07:53;;;;;;;0.50;0.50;;;5.10;99.90;;;;;;1844841;76;25223;-89
2023/10/16 08:13:31;;;;;;;0.80;0.57;;;5.30;99.90;;;;;;1926863;72;27110;-87
2023/10/16 08:16:18;;;;;;;0.67;0.50;;;5.30;99.90;;;;;;1838197;76;25776;-89
2023/10/16 08:19:14;;;;;;;0.50;0.50;;;5.30;99.90;;;;;;1850103;76;25315;-89
2023/10/16 08:22:03;;;;;;;0.47;0.47;;;5.40;99.90;;;;;;1858091;75;25220;-89
2023/10/16 08:24:59;;;;;;;0.87;0.80;;;5.50;99.90;;;;;;1844477;76;25225;-89
2023/10/16 08:27:49;;;;;;;0.77;0.70;;;5.40;99.90;;;;;;1867677;75;25262;-89
2023/10/16 08:30:49;;;;;;;0.57;0.57;;;5.40;99.90;;;;;;1836252;77;25867;-87
2023/10/16 08:36:18;;;;;;;0.40;0.40;;;5.50;99.90;;;;;;1944953;72;27427;-87
2023/10/16 08:39:09;;;;;;;2.20;0.50;;;5.60;99.90;;;;;;1935393;72;25306;-87
2023/10/16 08:42:01;;;;;;;0.57;0.57;;;5.60;99.90;;;;;;1895606;73;25854;-88
2023/10/16 08:44:51;;;;;;;0.70;0.70;;;5.80;99.90;;;;;;1905630;73;25772;-87
2023/10/16 08:47:42;;;;;;;0.53;0.53;;;5.60;99.90;;;;;;1906538;73;25239;-87
2023/10/16 08:50:41;;;;;;;0.43;0.43;;;5.80;99.90;;;;;;1902964;73;25229;-89
2023/10/16 08:53:34;;;;;;;2.10;1.00;;;5.90;99.90;;;;;;1903439;73;25250;-87
2023/10/16 08:56:23;;;;;;;0.77;0.77;;;5.90;99.90;;;;;;1902587;73;25273;-87
2023/10/16 08:59:32;;;;;;;0.70;0.70;;;5.80;99.90;;;;;;1894030;73;25224;-87
2023/10/16 09:02:24;;;;;;;0.80;0.80;;;5.90;99.90;;;;;;1896258;73;25245;-86
2023/10/16 09:05:16;;;;;;;0.50;0.50;;;5.90;99.90;;;;;;1882943;73;25285;-89
2023/10/16 09:08:04;;;;;;;1.10;0.50;;;5.90;99.90;;;;;;1896368;73;25177;-89
2023/10/16 09:10:53;;;;;;;0.60;0.60;;;5.90;99.90;;;;;;1902485;73;25644;-89
2023/10/16 09:13:47;;;;;;;0.40;0.40;;;6.20;99.90;;;;;;1899211;73;25161;-89
2023/10/16 09:16:34;;;;;;;0.43;0.43;;;6.10;99.90;;;;;;1900602;73;25260;-89
2023/10/16 09:19:32;;;;;;;0.60;0.60;;;6.10;99.90;;;;;;1902559;73;25242;-89
2023/10/16 09:22:18;;;;;;;0.57;0.57;;;6.20;99.90;;;;;;1934036;72;25267;-89
2023/10/16 09:25:08;;;;;;;0.50;0.50;;;6.10;99.90;;;;;;1940278;72;25215;-89
2023/10/16 09:27:57;;;;;;;0.50;0.50;;;6.20;99.90;;;;;;1938235;72;25757;-89
2023/10/16 09:33:28;;;;;;;0.50;0.50;;;6.30;99.90;;;;;;1933078;72;27145;-87
2023/10/16 09:39:46;;;;;;;0.80;0.40;;;6.40;99.90;;;;;;1979872;71;26266;-88
2023/10/16 09:42:34;;;;;;;0.30;0.30;;;6.40;99.90;;;;;;1938443;72;25252;-88
2023/10/16 09:45:21;;;;;;;0.40;0.40;;;6.40;99.90;;;;;;2002557;70;25236;-88
2023/10/16 09:48:19;;;;;;;1.10;0.93;;;6.50;99.90;;;;;;2002420;70;25192;-88
2023/10/16 09:51:02;;;;;;;0.40;0.40;;;6.60;99.90;;;;;;2010162;70;25331;-88
2023/10/16 09:56:38;;;;;;;0.60;0.60;;;6.80;99.90;;;;;;1924748;72;27054;-87
2023/10/16 09:59:32;;;;;;;0.60;0.50;;;6.90;99.90;;;;;;1887257;75;25798;-87
2023/10/16 10:02:21;;;;;;;0.47;0.47;;;6.90;99.90;;;;;;1880213;74;25196;-87
2023/10/16 10:05:12;;;;;;;0.50;0.50;;;7.00;99.90;;;;;;1898958;75;25209;-89
2023/10/16 10:08:15;;;;;;;1.03;0.53;;;6.90;99.90;;;;;;1872749;75;25317;-89
2023/10/16 10:13:43;;;;;;;0.33;0.33;;;7.10;99.90;;;;;;1932756;72;27100;-87
2023/10/16 10:16:35;;;;;;;1.93;0.30;;;7.10;99.90;;;;;;1865392;76;25327;-87
2023/10/16 10:19:31;;;;;;;0.67;0.50;;;7.00;99.90;;;;;;1837288;76;25248;-87
2023/10/16 10:22:17;;;;;;;1.07;0.50;;;7.20;99.90;;;;;;1912933;73;25276;-87
2023/10/16 10:25:17;;;;;;;0.40;0.40;;;7.30;99.90;;;;;;1906603;73;25220;-87
2023/10/16 10:28:10;;;;;;;0.40;0.40;;;7.40;99.90;;;;;;1862625;75;25318;-89
2023/10/16 10:31:02;;;;;;;0.83;0.50;;;7.30;99.90;;;;;;1841080;78;25366;-89
2023/10/16 10:33:52;;;;;;;0.30;0.30;;;7.50;99.90;;;;;;1839300;78;25312;-87
2023/10/16 10:39:44;;;;;;;0.50;0.50;;;7.40;99.90;;;;;;1953026;72;26649;-87
2023/10/16 10:45:58;;;;;;;0.40;0.40;;;7.50;99.90;;;;;;1990022;71;26420;-87
2023/10/16 10:51:34;;;;;;;0.40;0.40;;;7.70;99.90;;;;;;1929467;72;27741;-87
2023/10/16 10:54:26;;;;;;;0.33;0.30;;;7.60;99.90;;;;;;1916236;73;25824;-89
2023/10/16 10:57:23;;;;;;;0.73;0.40;;;7.60;99.90;;;;;;1865461;75;25313;-89
2023/10/16 11:00:43;;;;;;;0.70;0.47;;;7.70;99.90;;;;;;1843434;76;25186;-87
2023/10/16 11:03:33;;;;;;;0.43;0.43;;;7.70;99.90;;;;;;1897165;73;25274;-87
2023/10/16 11:06:31;;;;;;;0.40;0.40;;;7.80;99.90;;;;;;1878353;75;25218;-89
2023/10/16 11:09:13;;;;;;;0.50;0.50;;;7.80;99.90;;;;;;1820019;77;25866;-87
2023/10/16 11:12:01;;;;;;;1.60;0.40;;;7.90;99.90;;;;;;1875811;76;25336;-87
2023/10/16 11:14:50;;;;;;;0.30;0.30;;;7.90;99.90;;;;;;1873707;75;25305;-89
2023/10/16 11:17:39;;;;;;;3.50;0.53;;;8.00;99.90;;;;;;1839893;76;25197;-87
2023/10/16 11:20:31;;;;;;;0.50;0.50;;;8.20;99.90;;;;;;1838778;76;25342;-89
2023/10/16 11:23:22;;;;;;;0.40;0.40;;;8.00;99.90;;;;;;1841411;76;25263;-89
2023/10/16 11:26:13;;;;;;;0.43;0.43;;;8.00;99.90;;;;;;1841922;77;25278;-87
2023/10/16 11:29:04;;;;;;;2.67;0.47;;;8.10;99.90;;;;;;1914388;73;25159;-89
2023/10/16 11:31:53;;;;;;;0.53;0.53;;;8.10;99.90;;;;;;1874886;75;26465;-89
2023/10/16 11:34:45;;;;;;;0.47;0.47;;;8.10;99.90;;;;;;1843401;77;25229;-89
2023/10/16 11:37:34;;;;;;;2.43;0.40;;;8.10;99.90;;;;;;1877769;75;25290;-88
2023/10/16 11:40:31;;;;;;;0.50;0.50;;;8.10;99.90;;;;;;1844963;76;25633;-89
2023/10/16 11:43:19;;;;;;;0.33;0.33;;;8.10;99.90;;;;;;1906411;73;25323;-87
2023/10/16 11:48:49;;;;;;;0.93;0.53;;;8.10;99.90;;;;;;1945124;72;27800;-87
2023/10/16 11:51:39;;;;;;;0.30;0.30;;;8.00;99.90;;;;;;1925581;73;25251;-89
2023/10/16 11:54:30;;;;;;;0.63;0.40;;;8.10;99.90;;;;;;1864677;76;25344;-89
2023/10/16 11:57:18;;;;;;;0.73;0.40;;;8.20;99.90;;;;;;1916262;75;25269;-87
2023/10/16 12:00:18;;;;;;;0.40;0.40;;;8.10;99.90;;;;;;1917393;73;25281;-89
2023/10/16 12:03:07;;;;;;;0.80;0.70;;;8.10;99.90;;;;;;1921015;73;25853;-89
2023/10/16 12:05:56;;;;;;;2.63;0.97;;;8.20;99.90;;;;;;1924496;73;25279;-87
2023/10/16 12:08:45;;;;;;;0.33;0.33;;;8.30;99.90;;;;;;1924666;73;25310;-87
2023/10/16 12:11:33;;;;;;;0.67;0.67;;;8.30;99.90;;;;;;1919917;73;25821;-89
2023/10/16 12:14:23;;;;;;;1.43;1.07;;;8.20;99.90;;;;;;1924623;73;25243;-87
2023/10/16 12:17:12;;;;;;;1.07;1.00;;;8.10;99.90;;;;;;1925568;73;25241;-87
2023/10/16 12:20:08;;;;;;;0.80;0.80;;;8.10;99.90;;;;;;1921346;73;25731;-89
2023/10/16 12:22:52;;;;;;;1.03;0.73;;;8.10;99.90;;;;;;1930341;73;25236;-89
2023/10/16 12:25:40;;;;;;;0.90;0.90;;;8.10;99.90;;;;;;1920413;73;25231;-89
2023/10/16 12:31:22;;;;;;;0.77;0.60;;;8.20;99.90;;;;;;1954615;72;27089;-87
2023/10/16 12:36:57;;;;;;;0.70;0.70;;;8.40;99.90;;;;;;1973508;71;27185;-87
2023/10/16 12:39:46;;;;;;;0.60;0.30;;;8.40;99.90;;;;;;1911349;73;25739;-87
2023/10/16 12:42:34;;;;;;;1.70;0.70;;;8.40;99.90;;;;;;1910077;73;25248;-87
2023/10/16 12:45:23;;;;;;;0.50;0.50;;;8.40;99.90;;;;;;1919553;73;25205;-87
2023/10/16 12:48:12;;;;;;;0.40;0.40;;;8.40;99.90;;;;;;1925950;73;25206;-87
2023/10/16 12:51:01;;;;;;;0.40;0.40;;;8.40;99.90;;;;;;1935253;73;25213;-87
2023/10/16 12:53:51;;;;;;;0.30;0.30;;;8.40;99.90;;;;;;1928399;72;25787;-89
2023/10/16 12:56:41;;;;;;;0.30;0.30;;;8.50;99.90;;;;;;1919306;72;25319;-87
2023/10/16 12:59:30;;;;;;;0.40;0.40;;;8.50;99.90;;;;;;1931148;72;25340;-89
2023/10/16 13:02:25;;;;;;;0.37;0.37;;;8.50;99.90;;;;;;1930471;73;25164;-89
2023/10/16 13:05:13;;;;;;;0.40;0.40;;;8.50;99.90;;;;;;1939321;73;25263;-87
2023/10/16 13:08:01;;;;;;;0.40;0.40;;;8.50;99.90;;;;;;1926794;73;25709;-87
2023/10/16 13:10:51;;;;;;;0.30;0.30;;;8.50;99.90;;;;;;1931489;73;25361;-87
2023/10/16 13:16:24;;;;;;;0.40;0.40;;;8.50;99.90;;;;;;1935342;72;27137;-87
2023/10/16 13:19:14;;;;;;;0.97;0.43;;;8.60;99.90;;;;;;1900720;73;25258;-89
2023/10/16 13:22:10;;;;;;;0.40;0.40;;;8.60;99.90;;;;;;1882226;75;25323;-87
2023/10/16 13:24:54;;;;;;;0.40;0.40;;;8.70;99.90;;;;;;1834929;76;25255;-89
2023/10/16 13:27:44;;;;;;;0.30;0.30;;;8.60;99.90;;;;;;1829710;76;26605;-87
2023/10/16 13:30:32;;;;;;;0.50;0.43;;;8.60;99.90;;;;;;1861082;75;25331;-87
2023/10/16 13:33:21;;;;;;;0.50;0.50;;;8.60;99.90;;;;;;1815646;78;25401;-88
2023/10/16 13:36:11;;;;;;;2.57;0.50;;;8.60;99.90;;;;;;1864190;75;25344;-88
2023/10/16 13:39:00;;;;;;;0.57;0.57;;;8.60;99.90;;;;;;1823657;77;25304;-88
2023/10/16 13:41:51;;;;;;;0.40;0.40;;;8.60;99.90;;;;;;1857381;75;25303;-88
2023/10/16 13:44:40;;;;;;;0.97;0.60;;;8.60;99.90;;;;;;1828869;77;25335;-88
2023/10/16 13:47:32;;;;;;;0.50;0.50;;;8.60;99.90;;;;;;1897796;75;25233;-88
2023/10/16 13:50:24;;;;;;;0.77;0.70;;;8.40;99.90;;;;;;1894888;75;25314;-88
2023/10/16 13:53:12;;;;;;;0.50;0.50;;;8.30;99.90;;;;;;1893517;75;25293;-88
2023/10/16 13:56:05;;;;;;;1.00;0.50;;;8.20;99.90;;;;;;1859766;76;25215;-88
2023/10/16 13:58:50;;;;;;;0.97;0.50;;;8.10;99.90;;;;;;1827891;77;25785;-88
2023/10/16 14:01:40;;;;;;;0.50;0.50;;;8.20;99.90;;;;;;1837131;77;25269;-88
2023/10/16 14:07:23;;;;;;;0.80;0.80;;;8.20;99.90;;;;;;1945865;72;27345;-88
2023/10/16 14:10:13;;;;;;;0.43;0.43;;;8.30;99.90;;;;;;1932516;72;25207;-88
2023/10/16 14:13:10;;;;;;;0.40;0.40;;;8.40;99.90;;;;;;1934809;72;25634;-88
2023/10/16 14:15:52;;;;;;;0.47;0.47;;;8.40;99.90;;;;;;1926063;72;25219;-88
2023/10/16 14:18:43;;;;;;;1.33;0.60;;;8.30;99.90;;;;;;1937494;73;25291;-88
2023/10/16 14:21:32;;;;;;;4.60;0.47;;;8.30;99.90;;;;;;1935530;73;25272;-87
2023/10/16 14:24:24;;;;;;;0.63;0.60;;;8.30;99.90;;;;;;1928416;73;25312;-87
2023/10/16 14:27:14;;;;;;;0.93;0.70;;;8.30;99.90;;;;;;1930264;73;25770;-88
2023/10/16 14:30:02;;;;;;;0.70;0.70;;;8.40;99.90;;;;;;1929317;72;25232;-87
2023/10/16 14:32:51;;;;;;;1.63;0.50;;;8.40;99.90;;;;;;1930348;73;25706;-87
2023/10/16 14:35:41;;;;;;;1.70;0.70;;;8.40;99.90;;;;;;1923403;73;25370;-88
2023/10/16 14:38:30;;;;;;;0.70;0.70;;;8.30;99.90;;;;;;1927381;73;25269;-88
2023/10/16 14:54:48;;;;;;;1.07;0.90;;;8.30;99.90;;;;;;1863514;75;27717;-88
2023/10/16 15:00:27;;;;;;;0.93;0.83;;;8.10;99.90;;;;;;1929339;72;27105;-87
2023/10/16 15:03:11;;;;;;;0.70;0.70;;;8.10;99.90;;;;;;1899373;73;25188;-87
2023/10/16 15:06:00;;;;;;;0.60;0.60;;;8.00;99.90;;;;;;1891753;75;25276;-87
2023/10/16 15:08:48;;;;;;;0.70;0.70;;;8.00;99.90;;;;;;1911506;73;25507;-87
2023/10/16 15:11:38;;;;;;;2.20;0.70;;;7.90;99.90;;;;;;1891803;75;25250;-87
2023/10/16 15:14:28;;;;;;;0.97;0.80;;;7.80;99.90;;;;;;1901536;75;25267;-89
2023/10/16 15:17:17;;;;;;;0.77;0.77;;;7.70;99.90;;;;;;1897922;75;25725;-87
2023/10/16 15:20:12;;;;;;;1.80;0.77;;;7.70;99.90;;;;;;1910475;75;25688;-89
2023/10/16 15:23:00;;;;;;;2.20;0.80;;;7.70;99.90;;;;;;1888085;75;25619;-89
2023/10/16 15:28:39;;;;;;;0.67;0.60;;;7.50;99.90;;;;;;1947517;72;27021;-87
2023/10/16 15:31:29;;;;;;;2.37;0.80;;;7.50;99.90;;;;;;1926781;73;25749;-89
2023/10/16 15:34:19;;;;;;;1.40;0.70;;;7.50;99.90;;;;;;1921406;73;25207;-87
2023/10/16 15:37:08;;;;;;;0.60;0.60;;;7.50;99.90;;;;;;1890715;75;25182;-87
2023/10/16 15:39:57;;;;;;;3.03;0.50;;;7.50;99.90;;;;;;1926202;73;25237;-89
2023/10/16 15:42:48;;;;;;;0.77;0.60;;;7.40;99.90;;;;;;1920376;73;25777;-87
2023/10/16 15:45:40;;;;;;;0.40;0.40;;;7.40;99.90;;;;;;1921134;74;25796;-89
2023/10/16 15:48:30;;;;;;;1.50;0.53;;;7.40;99.90;;;;;;1928872;74;25186;-87
2023/10/16 15:51:18;;;;;;;1.07;0.60;;;7.30;99.90;;;;;;1932245;74;25263;-87
2023/10/16 15:54:09;;;;;;;0.63;0.60;;;7.30;99.90;;;;;;1922849;74;25226;-87
2023/10/16 15:56:57;;;;;;;0.83;0.60;;;7.30;99.90;;;;;;1921395;74;25255;-87
2023/10/16 15:59:46;;;;;;;0.70;0.53;;;7.30;99.90;;;;;;1921605;74;25198;-87
2023/10/16 16:05:18;;;;;;;0.80;0.60;;;7.30;99.90;;;;;;1920206;72;27466;-87
2023/10/16 16:08:08;;;;;;;0.50;0.50;;;7.30;99.90;;;;;;1895305;75;25369;-89
2023/10/16 16:10:59;;;;;;;4.73;0.90;;;7.30;99.90;;;;;;1892791;75;25878;-89
2023/10/16 16:13:49;;;;;;;0.93;0.73;;;7.30;99.90;;;;;;1901888;75;25225;-87
2023/10/16 16:16:38;;;;;;;1.37;0.50;;;7.30;99.90;;;;;;1903334;74;25279;-89
2023/10/16 16:19:27;;;;;;;2.10;0.50;;;7.30;99.90;;;;;;1904464;75;25208;-89
2023/10/16 16:22:15;;;;;;;0.70;0.70;;;7.30;99.90;;;;;;1849863;76;25723;-87
2023/10/16 16:25:05;;;;;;;1.93;0.70;;;7.20;99.90;;;;;;1866596;76;25282;-89
2023/10/16 16:27:54;;;;;;;0.97;0.70;;;7.10;99.90;;;;;;1849699;76;25821;-89
2023/10/16 16:44:19;;;;;;;1.50;0.80;;;7.10;99.90;;;;;;1911477;74;26877;-87
2023/10/16 16:49:48;;;;;;;1.67;0.80;;;6.80;99.90;;;;;;1930814;72;27157;-87
2023/10/16 16:52:37;;;;;;;0.70;0.70;;;6.70;99.90;;;;;;1898998;75;25231;-87
2023/10/16 16:55:27;;;;;;;1.33;0.43;;;6.70;99.90;;;;;;1894663;75;25278;-89
2023/10/16 16:58:16;;;;;;;0.70;0.70;;;6.70;99.90;;;;;;1898967;75;25808;-87
2023/10/16 17:12:24;;;;;;;0.80;0.80;;;6.60;99.90;;;;;;1873111;75;25274;-89
2023/10/16 17:15:16;;;;;;;0.90;0.90;;;6.60;99.90;;;;;;1892938;73;25570;-89
2023/10/16 17:18:05;;;;;;;0.90;0.90;;;6.60;99.90;;;;;;1847889;76;25342;-87
2023/10/16 17:21:00;;;;;;;1.40;0.90;;;6.60;99.90;;;;;;1924186;72;25272;-89
2023/10/16 17:23:49;;;;;;;1.63;0.90;;;6.50;99.90;;;;;;1925728;73;25254;-89
2023/10/16 17:29:20;;;;;;;1.03;0.70;;;6.40;99.90;;;;;;1929694;72;27439;-87
2023/10/16 17:32:09;;;;;;;0.90;0.80;;;6.40;99.90;;;;;;1895195;75;25192;-87
2023/10/16 17:37:40;;;;;;;0.80;0.80;;;6.30;99.90;;;;;;1941548;72;27469;-87
2023/10/16 17:40:29;;;;;;;3.50;0.87;;;6.40;99.90;;;;;;1932470;72;25676;-87
2023/10/16 17:43:18;;;;;;;1.07;0.90;;;6.40;99.90;;;;;;1926079;73;25327;-87
2023/10/16 17:46:10;;;;;;;2.13;0.93;;;6.30;99.90;;;;;;1927509;73;25710;-87
2023/10/16 17:48:58;;;;;;;0.60;0.60;;;6.30;99.90;;;;;;1911534;73;25250;-87
2023/10/16 17:51:47;;;;;;;3.67;0.90;;;6.30;99.90;;;;;;1904402;73;25178;-87
2023/10/16 17:54:35;;;;;;;1.23;1.00;;;6.30;99.90;;;;;;1911347;73;25322;-86
2023/10/16 17:57:25;;;;;;;0.70;0.70;;;6.30;99.90;;;;;;1912482;73;25194;-88
2023/10/16 18:00:16;;;;;;;1.00;0.90;;;6.30;99.90;;;;;;1912761;73;25177;-88
2023/10/16 18:03:05;;;;;;;4.83;1.07;;;6.30;99.90;;;;;;1930327;73;25286;-88
2023/10/16 18:05:55;;;;;;;1.60;1.17;;;6.20;99.90;;;;;;1910748;73;25334;-88
2023/10/16 18:08:46;;;;;;;1.80;1.00;;;6.20;99.90;;;;;;1912333;73;25340;-88
2023/10/16 18:11:38;;;;;;;1.53;0.90;;;6.10;99.90;;;;;;1906623;73;25226;-88